Time;durP1;ratioP1;P1;durP2;ratioP2;P2;SDS_P1;SDS_P2;PMS_P1;PMS_P2;Temp;Humidity;BMP_temperature;BMP_pressure;BME280_temperature;BME280_humidity;BME280_pressure;Samples;Min_cycle;Max_cycle;Signal;HPM_P1;HPM_P2
2021/07/08 00:00:44;;;;;;;4.30;2.70;;;19.00;99.90;;;;;;5044660;28;20036;-59
2021/07/08 00:03:10;;;;;;;4.75;2.85;;;19.00;99.90;;;;;;5043241;28;20478;-60
2021/07/08 00:05:39;;;;;;;4.68;3.28;;;19.00;99.90;;;;;;5045260;28;20029;-60
2021/07/08 00:08:05;;;;;;;3.50;3.20;;;18.90;99.90;;;;;;5044131;28;20499;-60
2021/07/08 00:10:36;;;;;;;3.15;2.88;;;18.90;99.90;;;;;;5044049;28;20061;-61
2021/07/08 00:13:02;;;;;;;4.07;2.97;;;18.80;99.90;;;;;;5035190;28;20049;-60
2021/07/08 00:15:29;;;;;;;3.22;2.58;;;18.80;99.90;;;;;;5047741;28;20037;-60
2021/07/08 00:17:56;;;;;;;3.03;2.78;;;18.80;99.90;;;;;;5043920;28;20025;-59
2021/07/08 00:20:25;;;;;;;5.57;3.05;;;18.70;99.90;;;;;;5049582;28;20094;-61
2021/07/08 00:22:51;;;;;;;6.63;3.08;;;18.70;99.90;;;;;;5049925;28;20499;-60
2021/07/08 00:25:23;;;;;;;3.35;2.70;;;18.60;99.90;;;;;;5029075;28;20041;-59
2021/07/08 00:27:49;;;;;;;5.47;3.10;;;18.60;99.90;;;;;;5029665;28;20017;-60
2021/07/08 00:30:15;;;;;;;4.70;3.10;;;18.60;99.90;;;;;;5032515;28;20094;-59
2021/07/08 00:32:41;;;;;;;3.58;3.20;;;18.50;99.90;;;;;;5046317;28;20536;-60
2021/07/08 00:35:08;;;;;;;4.93;2.70;;;18.60;99.90;;;;;;5049133;28;20021;-59
2021/07/08 00:37:33;;;;;;;4.90;3.30;;;18.50;99.90;;;;;;5044512;28;20108;-60
2021/07/08 00:39:59;;;;;;;4.10;2.80;;;18.40;99.90;;;;;;5047986;28;20112;-59
2021/07/08 00:42:25;;;;;;;3.78;3.38;;;18.40;99.90;;;;;;5045528;28;20033;-59
2021/07/08 00:44:50;;;;;;;3.35;2.80;;;18.30;99.90;;;;;;5053559;28;20057;-59
2021/07/08 00:47:16;;;;;;;4.15;2.90;;;18.30;99.90;;;;;;5046928;28;20261;-59
2021/07/08 00:49:42;;;;;;;4.53;3.25;;;18.30;99.90;;;;;;5043798;28;20037;-60
2021/07/08 00:52:07;;;;;;;4.63;2.90;;;18.20;99.90;;;;;;5048702;28;20120;-59
2021/07/08 00:54:33;;;;;;;3.40;2.90;;;18.10;99.90;;;;;;5043503;28;20029;-59
2021/07/08 00:56:58;;;;;;;4.68;3.20;;;18.10;99.90;;;;;;5049559;28;20029;-59
2021/07/08 00:59:27;;;;;;;5.45;3.15;;;18.00;99.90;;;;;;5041229;28;20037;-60
2021/07/08 01:01:53;;;;;;;3.97;3.25;;;18.00;99.90;;;;;;5046016;28;20039;-59
2021/07/08 01:04:19;;;;;;;3.20;2.90;;;17.90;99.90;;;;;;5040333;28;20594;-59
2021/07/08 01:06:45;;;;;;;3.90;3.10;;;17.90;99.90;;;;;;5047088;28;20029;-60
2021/07/08 01:09:14;;;;;;;2.83;2.63;;;17.90;99.90;;;;;;5037191;28;20337;-60
2021/07/08 01:11:41;;;;;;;4.35;3.30;;;17.80;99.90;;;;;;5040476;28;20033;-60
2021/07/08 01:14:07;;;;;;;3.97;3.28;;;17.80;99.90;;;;;;5053090;28;20028;-60
2021/07/08 01:16:34;;;;;;;3.83;3.15;;;17.80;99.90;;;;;;5065503;28;20370;-60
2021/07/08 01:19:01;;;;;;;4.38;3.53;;;17.80;99.90;;;;;;5055851;28;20017;-60
2021/07/08 01:21:32;;;;;;;4.13;3.60;;;17.80;99.90;;;;;;5052389;28;20025;-60
2021/07/08 01:23:59;;;;;;;5.47;3.55;;;17.80;99.90;;;;;;5059002;28;20330;-60
2021/07/08 01:26:25;;;;;;;9.43;4.53;;;17.70;99.90;;;;;;5053419;28;20101;-60
2021/07/08 01:28:52;;;;;;;7.18;4.05;;;17.80;99.90;;;;;;5054875;28;20063;-60
2021/07/08 01:31:20;;;;;;;4.75;3.97;;;17.80;99.90;;;;;;5047977;28;20021;-60
2021/07/08 01:33:46;;;;;;;5.20;3.90;;;17.70;99.90;;;;;;5057363;28;20032;-60
2021/07/08 01:36:12;;;;;;;7.18;4.40;;;17.80;99.90;;;;;;5058064;28;20039;-61
2021/07/08 01:38:38;;;;;;;7.30;3.65;;;17.70;99.90;;;;;;5060368;28;20043;-60
2021/07/08 01:41:04;;;;;;;6.93;4.38;;;17.80;99.90;;;;;;5058157;28;20490;-59
2021/07/08 01:43:37;;;;;;;8.98;4.43;;;17.80;99.90;;;;;;5048232;28;20025;-59
2021/07/08 01:46:07;;;;;;;7.03;4.22;;;17.80;99.90;;;;;;5058999;28;20085;-59
2021/07/08 01:48:34;;;;;;;6.22;4.30;;;17.80;99.90;;;;;;5048858;28;20028;-60
2021/07/08 01:51:05;;;;;;;8.25;4.22;;;17.80;99.90;;;;;;5060571;28;20038;-60
2021/07/08 01:53:31;;;;;;;4.70;4.10;;;17.80;99.90;;;;;;5056216;28;20040;-60
2021/07/08 01:55:57;;;;;;;5.70;3.90;;;17.80;99.90;;;;;;5064633;28;20020;-60
2021/07/08 01:58:24;;;;;;;4.47;3.80;;;17.80;99.90;;;;;;5056035;28;20023;-60
2021/07/08 02:00:51;;;;;;;4.07;3.63;;;17.80;99.90;;;;;;5056632;28;20056;-60
2021/07/08 02:03:16;;;;;;;4.35;3.72;;;17.70;99.90;;;;;;5062811;28;20109;-59
2021/07/08 02:05:42;;;;;;;5.88;3.63;;;17.70;99.90;;;;;;5056151;28;20100;-60
2021/07/08 02:08:07;;;;;;;3.92;3.42;;;17.60;99.90;;;;;;5063446;28;20082;-59
2021/07/08 02:10:33;;;;;;;7.65;4.32;;;17.50;99.90;;;;;;5055398;28;20151;-60
2021/07/08 02:12:59;;;;;;;4.07;3.67;;;17.50;99.90;;;;;;5030579;28;20029;-60
2021/07/08 02:15:25;;;;;;;5.97;3.60;;;17.40;99.90;;;;;;5032414;28;20356;-60
2021/07/08 02:17:50;;;;;;;4.95;3.50;;;17.40;99.90;;;;;;5035003;28;20483;-60
2021/07/08 02:20:17;;;;;;;6.20;3.90;;;17.40;99.90;;;;;;5029936;28;20032;-61
2021/07/08 02:22:44;;;;;;;4.47;4.07;;;17.30;99.90;;;;;;5030288;28;20022;-61
2021/07/08 02:25:11;;;;;;;5.47;4.07;;;17.30;99.90;;;;;;5030756;28;20606;-61
2021/07/08 02:27:37;;;;;;;6.72;4.55;;;17.30;99.90;;;;;;5028384;28;20060;-60
2021/07/08 02:30:18;;;;;;;5.00;3.70;;;17.30;99.90;;;;;;5028762;28;20522;-60
2021/07/08 02:32:44;;;;;;;6.35;4.25;;;17.20;99.90;;;;;;5028395;28;20033;-59
2021/07/08 02:35:11;;;;;;;5.63;4.97;;;17.20;99.90;;;;;;5028761;28;20335;-60
2021/07/08 02:37:38;;;;;;;9.68;5.38;;;17.20;99.90;;;;;;5030444;28;20026;-58
2021/07/08 02:40:14;;;;;;;5.07;4.53;;;17.10;99.90;;;;;;5029200;28;20445;-58
2021/07/08 02:42:41;;;;;;;8.82;5.13;;;17.10;99.90;;;;;;5027679;28;20026;-58
2021/07/08 02:45:08;;;;;;;9.05;5.10;;;17.10;99.90;;;;;;5031243;28;20104;-59
2021/07/08 02:47:35;;;;;;;4.80;4.40;;;17.00;99.90;;;;;;5034223;28;20029;-58
2021/07/08 02:50:01;;;;;;;5.28;4.78;;;17.00;99.90;;;;;;5034087;28;20022;-58
2021/07/08 02:52:26;;;;;;;4.80;4.30;;;16.90;99.90;;;;;;5052413;28;20052;-58
2021/07/08 02:54:52;;;;;;;5.70;4.95;;;16.90;99.90;;;;;;5047882;28;20068;-58
2021/07/08 02:57:17;;;;;;;6.28;4.75;;;16.90;99.90;;;;;;5049151;28;20024;-58
2021/07/08 02:59:43;;;;;;;5.45;4.63;;;16.80;99.90;;;;;;5037355;28;20502;-58
2021/07/08 03:02:08;;;;;;;5.22;4.63;;;16.90;99.90;;;;;;5047887;28;20022;-59
2021/07/08 03:04:34;;;;;;;4.75;4.35;;;16.80;99.90;;;;;;5047080;28;20134;-59
2021/07/08 03:07:00;;;;;;;4.88;4.47;;;16.70;99.90;;;;;;5044909;28;20313;-59
2021/07/08 03:09:25;;;;;;;5.82;4.70;;;16.70;99.90;;;;;;5050470;28;20016;-59
2021/07/08 03:11:51;;;;;;;6.60;4.90;;;16.70;99.90;;;;;;5048004;28;20101;-59
2021/07/08 03:14:16;;;;;;;5.85;4.68;;;16.70;99.90;;;;;;5048569;28;20032;-59
2021/07/08 03:16:42;;;;;;;7.80;4.55;;;16.70;99.90;;;;;;5053789;28;20059;-59
2021/07/08 03:19:07;;;;;;;5.35;4.78;;;16.70;99.90;;;;;;5049413;28;20401;-59
2021/07/08 03:21:33;;;;;;;7.43;5.70;;;16.70;99.90;;;;;;5058523;28;20289;-59
2021/07/08 03:23:58;;;;;;;6.63;5.05;;;16.70;99.90;;;;;;5058195;28;20467;-59
2021/07/08 03:26:24;;;;;;;5.97;4.75;;;16.70;99.90;;;;;;5056705;28;20095;-59
2021/07/08 03:28:50;;;;;;;9.63;5.63;;;16.70;99.90;;;;;;5057034;28;20047;-62
2021/07/08 03:31:18;;;;;;;8.48;5.68;;;16.80;99.90;;;;;;5057160;28;20418;-60
2021/07/08 03:33:44;;;;;;;7.32;5.88;;;16.80;99.90;;;;;;5047588;28;20442;-59
2021/07/08 03:36:09;;;;;;;6.30;5.22;;;16.80;99.90;;;;;;5035273;28;20033;-59
2021/07/08 03:38:35;;;;;;;7.00;5.63;;;16.90;99.90;;;;;;5031719;28;20448;-60
2021/07/08 03:41:00;;;;;;;6.50;4.90;;;16.90;99.90;;;;;;5031517;28;20037;-59
2021/07/08 03:43:26;;;;;;;7.47;5.47;;;16.90;99.90;;;;;;5034494;28;20247;-59
2021/07/08 03:45:53;;;;;;;9.00;5.35;;;16.90;99.90;;;;;;5043619;28;20517;-59
2021/07/08 03:48:18;;;;;;;10.10;5.90;;;16.90;99.90;;;;;;5042073;28;20482;-59
2021/07/08 03:50:44;;;;;;;8.23;5.25;;;17.00;99.90;;;;;;5052543;28;20037;-58
2021/07/08 03:53:09;;;;;;;12.18;6.05;;;16.90;99.90;;;;;;5044859;28;20498;-58
2021/07/08 03:55:36;;;;;;;7.07;5.30;;;17.00;99.90;;;;;;5053428;28;20029;-59
2021/07/08 03:58:02;;;;;;;6.68;5.90;;;17.00;99.90;;;;;;5047390;28;20472;-59
2021/07/08 04:00:33;;;;;;;7.60;6.43;;;17.00;99.90;;;;;;5042303;28;20032;-59
2021/07/08 04:03:04;;;;;;;15.52;7.00;;;17.00;99.90;;;;;;5051939;28;20384;-59
2021/07/08 04:05:30;;;;;;;6.78;5.82;;;17.00;99.90;;;;;;5045061;28;20111;-59
2021/07/08 04:07:55;;;;;;;9.43;6.32;;;17.00;99.90;;;;;;5053963;28;20581;-59
2021/07/08 04:10:21;;;;;;;8.05;6.13;;;17.10;99.90;;;;;;5047037;28;20040;-58
2021/07/08 04:12:47;;;;;;;7.93;6.25;;;17.10;99.90;;;;;;5054152;28;20021;-58
2021/07/08 04:15:13;;;;;;;7.70;5.88;;;17.10;99.90;;;;;;5044348;28;20135;-58
2021/07/08 04:17:38;;;;;;;8.68;5.95;;;17.10;99.90;;;;;;5052526;28;20071;-59
2021/07/08 04:20:07;;;;;;;6.30;5.70;;;17.20;99.90;;;;;;5061531;28;20038;-59
2021/07/08 04:22:32;;;;;;;8.68;5.60;;;17.20;99.90;;;;;;5057989;28;20028;-59
2021/07/08 04:24:58;;;;;;;7.03;5.75;;;17.30;99.90;;;;;;5045370;28;20037;-59
2021/07/08 04:27:23;;;;;;;6.78;5.60;;;17.30;99.90;;;;;;5055430;28;20040;-59
2021/07/08 04:29:49;;;;;;;6.28;5.30;;;17.40;99.90;;;;;;5045863;28;20422;-60
2021/07/08 04:32:14;;;;;;;6.43;5.50;;;17.40;99.90;;;;;;5059166;28;20109;-59
2021/07/08 04:34:41;;;;;;;5.93;5.43;;;17.50;99.90;;;;;;5045468;28;20497;-58
2021/07/08 04:37:06;;;;;;;7.25;5.40;;;17.50;99.90;;;;;;5042738;28;20068;-59
2021/07/08 04:39:32;;;;;;;8.70;6.22;;;17.60;99.90;;;;;;5035943;28;20418;-59
2021/07/08 04:41:57;;;;;;;9.50;5.70;;;17.60;99.90;;;;;;5034459;28;20101;-58
2021/07/08 04:44:23;;;;;;;6.15;5.55;;;17.70;99.90;;;;;;5033903;28;20488;-59
2021/07/08 04:46:48;;;;;;;8.82;5.72;;;17.70;99.90;;;;;;5034900;28;20112;-59
2021/07/08 04:49:14;;;;;;;9.38;5.57;;;17.80;99.90;;;;;;5057322;28;20099;-58
2021/07/08 04:51:39;;;;;;;7.22;5.60;;;17.80;99.90;;;;;;5041280;28;20032;-59
2021/07/08 04:54:05;;;;;;;9.68;6.00;;;17.90;99.90;;;;;;5043433;28;20036;-58
2021/07/08 04:56:30;;;;;;;8.85;6.30;;;17.90;99.90;;;;;;5048230;28;20028;-59
2021/07/08 04:58:56;;;;;;;8.18;5.47;;;17.80;99.90;;;;;;5030602;28;20029;-58
2021/07/08 05:01:21;;;;;;;6.95;5.47;;;17.80;99.90;;;;;;5042267;28;20013;-59
2021/07/08 05:03:47;;;;;;;6.05;5.47;;;17.90;99.90;;;;;;5034060;28;20026;-58
2021/07/08 05:06:33;;;;;;;11.70;5.88;;;18.00;99.90;;;;;;5029108;28;20047;-58
2021/07/08 05:08:58;;;;;;;6.95;6.00;;;18.00;99.90;;;;;;5021172;28;20026;-58
2021/07/08 05:11:24;;;;;;;7.15;5.63;;;18.00;99.90;;;;;;5043664;28;20508;-59
2021/07/08 05:13:49;;;;;;;10.63;6.20;;;18.10;99.90;;;;;;5042619;28;20041;-58
2021/07/08 05:16:15;;;;;;;8.93;6.20;;;18.20;99.90;;;;;;5039874;28;20023;-58
2021/07/08 05:18:40;;;;;;;6.65;5.47;;;18.20;99.90;;;;;;5052546;28;20028;-59
2021/07/08 05:21:06;;;;;;;7.57;5.18;;;18.30;99.90;;;;;;5058503;28;20024;-59
2021/07/08 05:23:33;;;;;;;8.15;5.80;;;18.40;99.90;;;;;;5059702;28;20043;-59
2021/07/08 05:25:58;;;;;;;10.32;5.68;;;18.40;99.90;;;;;;5056598;28;20267;-59
2021/07/08 05:28:24;;;;;;;8.13;6.60;;;18.50;99.90;;;;;;5058606;28;20036;-59
2021/07/08 05:30:49;;;;;;;6.82;4.90;;;18.50;99.90;;;;;;5058794;28;20033;-60
2021/07/08 05:33:15;;;;;;;10.40;7.10;;;18.60;99.90;;;;;;5055041;28;20030;-59
2021/07/08 05:35:40;;;;;;;9.18;5.28;;;18.60;99.90;;;;;;5061162;28;20020;-59
2021/07/08 05:38:06;;;;;;;7.75;6.55;;;18.70;99.90;;;;;;5060652;28;20045;-58
2021/07/08 05:40:32;;;;;;;7.25;5.93;;;18.70;99.90;;;;;;5060749;28;20028;-58
2021/07/08 05:42:58;;;;;;;6.45;5.47;;;18.80;99.90;;;;;;5056220;28;20017;-59
2021/07/08 05:45:24;;;;;;;7.97;6.43;;;18.80;99.90;;;;;;5062968;28;20503;-59
2021/07/08 05:47:50;;;;;;;18.02;7.07;;;18.90;99.90;;;;;;5060076;28;20040;-54
2021/07/08 05:50:16;;;;;;;11.35;6.05;;;18.90;99.90;;;;;;5059505;28;20498;-54
2021/07/08 05:52:41;;;;;;;11.32;6.38;;;18.90;99.90;;;;;;5061007;28;20032;-54
2021/07/08 05:55:08;;;;;;;6.40;5.50;;;18.90;99.90;;;;;;5059900;28;20024;-54
2021/07/08 05:57:33;;;;;;;7.38;5.97;;;19.00;99.90;;;;;;5060803;28;20421;-54
2021/07/08 05:59:59;;;;;;;5.22;4.72;;;19.10;99.90;;;;;;5057373;28;20156;-54
2021/07/08 06:02:25;;;;;;;5.95;5.35;;;19.10;99.90;;;;;;5059804;28;20025;-54
2021/07/08 06:04:50;;;;;;;6.35;5.20;;;19.20;99.90;;;;;;5032897;28;20044;-54
2021/07/08 06:07:16;;;;;;;6.15;5.40;;;19.30;99.90;;;;;;5036491;28;20047;-54
2021/07/08 06:09:41;;;;;;;8.38;5.50;;;19.30;99.90;;;;;;5032896;28;20032;-54
2021/07/08 06:12:08;;;;;;;7.88;5.90;;;19.40;99.90;;;;;;5035955;28;20017;-54
2021/07/08 06:14:33;;;;;;;10.80;5.53;;;19.40;99.90;;;;;;5033225;28;20021;-54
2021/07/08 06:16:59;;;;;;;8.73;6.35;;;19.40;99.90;;;;;;5036036;28;20034;-54
2021/07/08 06:19:25;;;;;;;7.55;6.13;;;19.50;99.90;;;;;;5034565;28;20550;-54
2021/07/08 06:21:50;;;;;;;7.72;4.72;;;19.60;99.90;;;;;;5033846;28;20018;-54
2021/07/08 06:24:17;;;;;;;6.38;5.57;;;19.60;99.90;;;;;;5042802;28;20541;-54
2021/07/08 06:26:42;;;;;;;5.85;5.30;;;19.70;99.90;;;;;;5045247;28;20432;-54
2021/07/08 06:29:08;;;;;;;6.93;5.95;;;19.80;99.90;;;;;;5049279;28;20032;-54
2021/07/08 06:31:34;;;;;;;5.25;4.70;;;19.90;99.90;;;;;;5044184;28;20025;-54
2021/07/08 06:33:59;;;;;;;5.97;4.97;;;20.00;99.90;;;;;;5047536;28;20371;-54
2021/07/08 06:36:25;;;;;;;6.40;5.50;;;20.10;99.90;;;;;;5035075;28;20036;-54
2021/07/08 06:38:51;;;;;;;9.30;5.43;;;20.10;99.90;;;;;;5034809;28;20036;-54
2021/07/08 06:41:17;;;;;;;6.53;5.90;;;20.20;99.90;;;;;;5033821;28;20056;-54
2021/07/08 06:43:43;;;;;;;8.45;5.15;;;20.20;99.90;;;;;;5041872;28;20029;-54
2021/07/08 06:46:14;;;;;;;8.25;6.13;;;20.20;99.90;;;;;;5040476;28;20033;-54
2021/07/08 06:48:39;;;;;;;5.05;4.55;;;20.10;99.90;;;;;;5053957;28;20017;-54
2021/07/08 06:51:05;;;;;;;8.93;5.93;;;20.10;99.90;;;;;;5054098;28;20167;-54
2021/07/08 06:53:30;;;;;;;5.18;4.68;;;20.20;99.90;;;;;;5043770;28;20112;-54
2021/07/08 06:55:56;;;;;;;6.55;5.00;;;20.40;99.90;;;;;;5053400;28;20036;-54
2021/07/08 06:58:21;;;;;;;10.48;5.40;;;20.60;99.90;;;;;;5040222;28;20036;-54
2021/07/08 07:00:47;;;;;;;5.75;4.95;;;20.70;99.90;;;;;;5032370;28;20024;-54
2021/07/08 07:03:12;;;;;;;7.32;4.97;;;20.80;99.90;;;;;;5033627;28;20443;-54
2021/07/08 07:05:38;;;;;;;9.18;5.20;;;21.00;99.90;;;;;;5033048;28;20559;-54
2021/07/08 07:08:03;;;;;;;8.98;4.80;;;21.10;99.90;;;;;;5035011;28;20210;-54
2021/07/08 07:10:30;;;;;;;6.22;5.18;;;21.20;99.90;;;;;;5046399;28;20036;-54
2021/07/08 07:12:57;;;;;;;7.85;5.25;;;21.20;99.90;;;;;;5049141;28;20473;-54
2021/07/08 07:15:27;;;;;;;7.18;5.10;;;21.40;99.90;;;;;;5038491;28;20036;-54
2021/07/08 07:17:53;;;;;;;5.28;4.40;;;21.50;99.90;;;;;;5046547;28;20112;-54
2021/07/08 07:20:20;;;;;;;6.63;4.70;;;21.60;99.90;;;;;;5062973;28;20104;-54
2021/07/08 07:22:47;;;;;;;4.75;4.07;;;21.60;99.90;;;;;;5057648;28;20025;-54
2021/07/08 07:25:15;;;;;;;8.30;4.82;;;21.60;99.90;;;;;;5062784;28;20021;-54
2021/07/08 07:27:41;;;;;;;8.35;5.22;;;21.70;99.90;;;;;;5047624;28;20132;-53
2021/07/08 07:30:07;;;;;;;7.03;4.95;;;21.80;99.90;;;;;;5034522;28;20061;-54
2021/07/08 07:32:34;;;;;;;9.38;4.75;;;22.00;99.90;;;;;;5035173;28;20487;-63
2021/07/08 07:34:59;;;;;;;7.85;4.60;;;22.30;99.90;;;;;;5034320;28;20113;-61
2021/07/08 07:37:26;;;;;;;6.10;5.05;;;22.40;99.90;;;;;;5036435;28;20084;-60
2021/07/08 07:39:52;;;;;;;6.35;4.65;;;22.40;99.90;;;;;;5035471;28;20395;-60
2021/07/08 07:42:18;;;;;;;5.07;4.22;;;22.50;99.90;;;;;;5037145;28;20029;-59
2021/07/08 07:44:44;;;;;;;9.07;4.68;;;22.60;99.90;;;;;;5034412;28;20113;-59
2021/07/08 07:47:11;;;;;;;8.20;4.88;;;22.80;99.90;;;;;;5036585;28;20021;-59
2021/07/08 07:49:37;;;;;;;7.70;3.95;;;23.10;99.90;;;;;;5034902;28;20029;-60
2021/07/08 07:52:05;;;;;;;10.27;4.10;;;23.20;99.90;;;;;;5034305;28;20025;-60
2021/07/08 07:54:32;;;;;;;10.35;4.20;;;23.30;99.90;;;;;;5033439;28;20017;-59
2021/07/08 07:56:59;;;;;;;12.70;5.00;;;23.50;99.90;;;;;;5033871;28;20026;-60
2021/07/08 07:59:25;;;;;;;7.03;4.45;;;23.50;99.90;;;;;;5032250;28;20017;-60
2021/07/08 08:01:50;;;;;;;6.07;3.40;;;23.60;99.90;;;;;;5031713;28;20557;-60
2021/07/08 08:04:16;;;;;;;6.60;4.03;;;23.60;99.90;;;;;;5033140;28;20447;-60
2021/07/08 08:09:25;;;;;;;11.48;4.07;;;23.60;99.90;;;;;;5031318;28;20118;-59
2021/07/08 08:11:53;;;;;;;5.07;3.80;;;23.60;99.90;;;;;;5031961;28;20440;-59
2021/07/08 08:14:19;;;;;;;6.07;3.53;;;23.50;99.90;;;;;;5032854;28;20030;-60
2021/07/08 08:16:44;;;;;;;6.20;4.03;;;23.50;99.90;;;;;;5047894;28;20259;-59
2021/07/08 08:19:10;;;;;;;7.30;3.90;;;23.40;99.90;;;;;;5042510;28;20028;-59
2021/07/08 08:21:35;;;;;;;12.50;5.18;;;23.30;99.90;;;;;;5047378;28;20024;-59
2021/07/08 08:24:01;;;;;;;7.95;4.38;;;23.20;99.90;;;;;;5043459;28;20013;-60
2021/07/08 08:26:26;;;;;;;7.28;3.78;;;23.20;99.90;;;;;;5043969;28;20153;-60
2021/07/08 08:28:52;;;;;;;4.90;3.60;;;23.20;99.90;;;;;;5034220;28;20053;-59
2021/07/08 08:31:18;;;;;;;5.53;4.10;;;23.30;99.90;;;;;;5044882;28;20506;-59
2021/07/08 08:33:44;;;;;;;5.00;3.88;;;23.30;99.90;;;;;;5055623;28;20020;-59
2021/07/08 08:36:09;;;;;;;7.28;3.80;;;23.30;99.90;;;;;;5052590;28;20082;-60
2021/07/08 08:38:35;;;;;;;7.25;3.38;;;23.50;99.90;;;;;;5039042;28;20123;-60
2021/07/08 08:41:00;;;;;;;6.55;3.90;;;23.50;99.90;;;;;;5037201;28;20027;-59
2021/07/08 08:43:26;;;;;;;5.10;4.13;;;23.50;99.90;;;;;;5043195;28;20517;-59
2021/07/08 08:45:51;;;;;;;5.25;3.33;;;23.40;99.90;;;;;;5059643;28;20418;-60
2021/07/08 08:48:17;;;;;;;8.77;3.65;;;23.40;99.90;;;;;;5046674;28;20146;-60
2021/07/08 08:50:44;;;;;;;6.53;3.63;;;23.50;99.90;;;;;;5050075;28;20028;-59
2021/07/08 08:53:11;;;;;;;4.28;3.70;;;23.50;99.90;;;;;;5051287;28;20245;-59
2021/07/08 08:55:38;;;;;;;8.90;3.55;;;23.30;99.90;;;;;;5051068;28;20024;-59
2021/07/08 08:58:06;;;;;;;5.57;3.58;;;23.30;99.90;;;;;;5053319;28;20044;-59
2021/07/08 09:00:49;;;;;;;7.57;3.78;;;23.30;99.90;;;;;;5038872;28;20256;-58
2021/07/08 09:03:20;;;;;;;5.57;3.38;;;23.40;99.90;;;;;;5053815;28;20021;-58
2021/07/08 09:05:57;;;;;;;4.07;3.67;;;23.50;99.90;;;;;;5044998;28;20108;-58
2021/07/08 09:08:22;;;;;;;6.00;3.78;;;23.70;99.90;;;;;;5034167;28;20045;-59
2021/07/08 09:11:14;;;;;;;11.65;4.15;;;24.00;99.90;;;;;;5031275;28;20072;-58
2021/07/08 09:13:43;;;;;;;5.97;4.43;;;23.80;99.90;;;;;;5031595;28;20028;-58
2021/07/08 09:16:19;;;;;;;6.30;3.30;;;23.80;99.90;;;;;;5045482;28;20119;-58
2021/07/08 09:19:11;;;;;;;12.90;3.90;;;23.90;99.90;;;;;;5043459;28;20025;-59
2021/07/08 09:21:46;;;;;;;9.30;3.60;;;24.00;99.90;;;;;;5048088;28;20288;-59
2021/07/08 09:24:29;;;;;;;6.45;3.80;;;23.90;99.90;;;;;;5047161;28;20356;-59
2021/07/08 09:27:09;;;;;;;8.73;4.05;;;23.90;99.90;;;;;;5054168;28;20036;-57
2021/07/08 09:29:37;;;;;;;5.10;3.70;;;23.90;99.90;;;;;;5046815;28;20327;-59
2021/07/08 09:32:34;;;;;;;8.52;4.63;;;24.00;99.90;;;;;;5034532;28;20391;-58
2021/07/08 09:35:00;;;;;;;10.27;4.50;;;23.90;99.90;;;;;;5056804;28;20044;-60
2021/07/08 09:37:29;;;;;;;10.75;3.90;;;24.00;99.90;;;;;;5059754;28;20021;-57
2021/07/08 09:40:04;;;;;;;5.75;3.65;;;24.10;99.90;;;;;;5033561;28;20469;-58
2021/07/08 09:42:32;;;;;;;7.60;3.38;;;24.00;99.90;;;;;;5038008;28;20025;-59
2021/07/08 09:45:06;;;;;;;5.00;4.20;;;24.10;99.90;;;;;;5049076;28;20041;-59
2021/07/08 09:47:31;;;;;;;6.03;3.35;;;24.10;99.90;;;;;;5054271;28;20017;-58
2021/07/08 09:49:57;;;;;;;30.50;4.88;;;24.10;99.90;;;;;;5047911;28;20395;-59
2021/07/08 09:52:22;;;;;;;5.20;3.53;;;24.10;99.90;;;;;;5052569;28;20017;-60
2021/07/08 09:57:41;;;;;;;5.03;3.70;;;24.10;99.90;;;;;;5052884;28;20437;-60
2021/07/08 10:00:18;;;;;;;4.90;3.53;;;24.10;99.90;;;;;;5042889;28;20352;-60
2021/07/08 10:02:47;;;;;;;7.30;3.97;;;24.00;99.90;;;;;;5054501;28;20036;-60
2021/07/08 10:05:14;;;;;;;6.40;3.50;;;24.10;99.90;;;;;;5048983;28;20241;-60
2021/07/08 10:07:41;;;;;;;4.30;3.90;;;24.00;99.90;;;;;;5046094;28;20082;-58
2021/07/08 10:10:07;;;;;;;7.88;4.13;;;24.10;99.90;;;;;;5037965;28;20258;-59
2021/07/08 10:12:33;;;;;;;7.90;4.03;;;24.10;99.90;;;;;;5050374;28;20040;-60
2021/07/08 10:15:01;;;;;;;4.82;3.33;;;24.10;99.90;;;;;;5032039;28;20127;-59
2021/07/08 10:17:30;;;;;;;3.78;3.47;;;24.00;99.90;;;;;;5033269;28;20025;-60
2021/07/08 10:19:56;;;;;;;3.63;3.33;;;24.00;99.90;;;;;;5042057;28;20029;-60
2021/07/08 10:22:22;;;;;;;6.63;3.30;;;24.20;99.90;;;;;;5045362;28;20024;-60
2021/07/08 10:24:49;;;;;;;3.88;3.33;;;24.30;99.90;;;;;;5030229;28;20104;-58
2021/07/08 10:27:16;;;;;;;4.07;3.28;;;24.50;99.90;;;;;;5053883;28;20028;-61
2021/07/08 10:29:44;;;;;;;5.07;3.08;;;24.60;99.90;;;;;;5041790;28;20114;-58
2021/07/08 10:32:13;;;;;;;3.47;2.85;;;25.00;99.90;;;;;;5045895;28;20589;-57
2021/07/08 10:34:46;;;;;;;7.22;3.47;;;25.40;99.90;;;;;;5046555;28;20021;-58
2021/07/08 10:37:27;;;;;;;5.03;3.05;;;25.80;99.90;;;;;;5058575;28;20024;-57
2021/07/08 10:39:55;;;;;;;5.50;3.05;;;26.10;99.90;;;;;;5043367;28;20033;-59
2021/07/08 10:42:43;;;;;;;4.18;2.80;;;26.10;99.90;;;;;;5049198;28;20162;-59
2021/07/08 10:45:47;;;;;;;6.55;3.70;;;26.10;99.90;;;;;;5045038;28;20022;-62
2021/07/08 10:48:21;;;;;;;6.95;2.80;;;26.60;99.90;;;;;;5046371;28;20037;-59
2021/07/08 10:50:48;;;;;;;7.45;3.13;;;27.50;99.90;;;;;;5041177;28;20040;-59
2021/07/08 10:53:21;;;;;;;5.80;2.35;;;28.90;99.50;;;;;;5050634;28;20029;-61
2021/07/08 10:56:03;;;;;;;2.78;2.05;;;29.60;96.40;;;;;;5039855;28;20033;-59
2021/07/08 10:58:51;;;;;;;6.00;2.60;;;29.90;93.70;;;;;;5043536;28;20083;-60
2021/07/08 11:01:37;;;;;;;3.72;2.17;;;30.90;92.30;;;;;;5047828;28;20025;-60
2021/07/08 11:04:03;;;;;;;3.08;2.03;;;30.90;86.00;;;;;;5050837;28;20231;-60
2021/07/08 11:06:34;;;;;;;6.22;2.70;;;30.90;86.60;;;;;;5051635;28;20112;-60
2021/07/08 11:09:17;;;;;;;3.85;1.73;;;31.30;84.00;;;;;;5032550;28;20033;-60
2021/07/08 11:11:46;;;;;;;3.95;1.85;;;32.20;77.70;;;;;;5053795;28;20040;-61
2021/07/08 11:14:12;;;;;;;5.30;2.00;;;31.50;77.30;;;;;;5038187;28;20614;-60
2021/07/08 11:16:48;;;;;;;4.65;1.90;;;31.70;73.80;;;;;;5054780;28;20031;-60
2021/07/08 11:19:19;;;;;;;6.38;2.40;;;31.80;74.90;;;;;;5050957;28;20108;-60
2021/07/08 11:22:06;;;;;;;3.83;2.40;;;31.10;74.90;;;;;;5048310;28;20059;-60
2021/07/08 11:24:44;;;;;;;2.10;1.90;;;31.00;76.10;;;;;;5033135;28;20037;-60
2021/07/08 11:27:11;;;;;;;4.10;2.13;;;31.10;77.60;;;;;;5044268;28;20434;-60
2021/07/08 11:29:49;;;;;;;4.90;2.55;;;31.30;77.60;;;;;;5038136;28;20029;-60
2021/07/08 11:33:01;;;;;;;4.93;2.17;;;31.30;77.10;;;;;;5048909;28;20028;-60
2021/07/08 11:35:33;;;;;;;;;;;31.80;76.10;;;;;;5039805;28;20477;-60
2021/07/08 11:38:08;;;;;;;5.35;2.20;;;31.80;75.90;;;;;;5052191;28;19905;-60
2021/07/08 11:40:58;;;;;;;3.97;2.10;;;32.20;75.30;;;;;;5044601;28;20029;-60
2021/07/08 11:43:29;;;;;;;;;;;32.40;75.10;;;;;;5029702;28;20036;-60
2021/07/08 11:46:03;;;;;;;3.92;2.28;;;32.60;73.20;;;;;;5027718;28;20071;-60
2021/07/08 11:48:35;;;;;;;5.28;1.92;;;32.30;71.60;;;;;;5029563;28;20108;-59
2021/07/08 11:51:11;;;;;;;3.78;2.20;;;32.30;70.90;;;;;;5026322;28;20038;-60
2021/07/08 11:53:38;;;;;;;2.38;2.10;;;32.10;71.30;;;;;;5016955;28;20041;-60
2021/07/08 11:56:04;;;;;;;2.65;2.25;;;31.90;71.10;;;;;;5025161;28;20028;-60
2021/07/08 11:58:32;;;;;;;5.65;2.70;;;31.30;72.30;;;;;;5022347;28;20421;-60
2021/07/08 12:01:05;;;;;;;3.35;2.35;;;31.50;71.00;;;;;;5018304;28;20734;-61
2021/07/08 12:04:15;;;;;;;1.73;1.60;;;31.30;71.70;;;;;;5022788;28;20021;-61
2021/07/08 12:06:40;;;;;;;;;;;30.90;70.00;;;;;;5033567;28;20029;-60
2021/07/08 12:16:14;;;;;;;3.63;2.88;;;31.20;71.20;;;;;;5047153;28;20081;-60
2021/07/08 12:18:48;;;;;;;4.85;2.67;;;31.20;71.20;;;;;;5036452;28;20447;-60
2021/07/08 12:21:24;;;;;;;5.82;2.70;;;30.80;71.00;;;;;;5044108;28;20040;-59
2021/07/08 12:23:52;;;;;;;4.70;2.95;;;30.10;73.50;;;;;;5032013;28;20101;-59
2021/07/08 12:26:38;;;;;;;2.60;2.40;;;29.70;73.20;;;;;;5048828;28;20039;-59
2021/07/08 12:29:22;;;;;;;3.28;2.50;;;29.20;76.20;;;;;;5042254;28;20025;-59
2021/07/08 12:46:11;;;;;;;7.53;4.07;;;27.20;82.90;;;;;;5057093;28;20047;-60
2021/07/08 12:48:37;;;;;;;4.63;4.20;;;26.90;83.90;;;;;;5047712;28;20028;-60
2021/07/08 12:51:03;;;;;;;4.70;4.15;;;26.60;85.60;;;;;;5056756;28;20028;-59
2021/07/08 12:53:29;;;;;;;7.13;4.22;;;26.30;86.00;;;;;;5045641;28;20021;-60
2021/07/08 12:55:57;;;;;;;4.60;3.88;;;26.10;87.80;;;;;;5039606;28;20032;-60
2021/07/08 12:58:33;;;;;;;7.13;3.97;;;25.90;87.60;;;;;;5047383;28;20448;-60
2021/07/08 13:01:05;;;;;;;5.97;3.97;;;25.80;88.30;;;;;;5046910;28;20071;-59
2021/07/08 13:03:32;;;;;;;8.07;4.20;;;25.70;88.60;;;;;;5050518;28;20020;-61
2021/07/08 13:06:12;;;;;;;6.70;3.95;;;25.60;89.30;;;;;;5048919;28;20375;-60
2021/07/08 13:08:38;;;;;;;5.03;4.30;;;25.30;90.50;;;;;;5045966;28;20021;-60
2021/07/08 13:11:14;;;;;;;5.03;4.53;;;25.30;92.20;;;;;;5051316;28;20554;-60
2021/07/08 13:13:40;;;;;;;4.55;4.07;;;25.20;92.20;;;;;;5037786;28;20029;-60
2021/07/08 13:16:20;;;;;;;7.22;3.83;;;25.20;92.70;;;;;;5044480;28;20024;-61
2021/07/08 13:18:46;;;;;;;4.32;3.92;;;25.20;92.70;;;;;;5056897;28;20488;-60
2021/07/08 13:21:14;;;;;;;6.20;4.10;;;25.20;92.20;;;;;;5049466;28;20401;-61